sensor_id;sensor_type;location;lat;lon;timestamp;P1;durP1;ratioP1;P2;durP2;ratioP2
71475;SDS011;59286;59.274;17.974;2023-09-18T00:00:20;3.65;;;1.70;;
71475;SDS011;59286;59.274;17.974;2023-09-18T00:02:46;3.50;;;2.03;;
71475;SDS011;59286;59.274;17.974;2023-09-18T00:05:12;3.40;;;1.88;;
71475;SDS011;59286;59.274;17.974;2023-09-18T00:07:39;3.60;;;1.55;;
71475;SDS011;59286;59.274;17.974;2023-09-18T00:10:04;3.53;;;1.85;;
71475;SDS011;59286;59.274;17.974;2023-09-18T00:12:30;2.97;;;1.75;;
71475;SDS011;59286;59.274;17.974;2023-09-18T00:14:55;4.45;;;1.90;;
71475;SDS011;59286;59.274;17.974;2023-09-18T00:17:21;2.90;;;1.90;;
71475;SDS011;59286;59.274;17.974;2023-09-18T00:19:47;2.97;;;1.90;;
71475;SDS011;59286;59.274;17.974;2023-09-18T00:22:13;4.65;;;1.58;;
71475;SDS011;59286;59.274;17.974;2023-09-18T00:24:38;4.45;;;2.28;;
71475;SDS011;59286;59.274;17.974;2023-09-18T00:27:03;3.80;;;1.83;;
71475;SDS011;59286;59.274;17.974;2023-09-18T00:29:29;4.60;;;1.95;;
71475;SDS011;59286;59.274;17.974;2023-09-18T00:31:54;3.90;;;2.05;;
71475;SDS011;59286;59.274;17.974;2023-09-18T00:34:19;3.53;;;1.60;;
71475;SDS011;59286;59.274;17.974;2023-09-18T00:36:45;2.22;;;1.33;;
71475;SDS011;59286;59.274;17.974;2023-09-18T00:39:10;4.13;;;1.90;;
71475;SDS011;59286;59.274;17.974;2023-09-18T00:41:36;8.75;;;1.50;;
71475;SDS011;59286;59.274;17.974;2023-09-18T00:44:01;2.28;;;1.42;;
71475;SDS011;59286;59.274;17.974;2023-09-18T00:46:26;3.92;;;1.60;;
71475;SDS011;59286;59.274;17.974;2023-09-18T00:48:53;5.25;;;1.70;;
71475;SDS011;59286;59.274;17.974;2023-09-18T00:51:18;3.53;;;1.50;;
71475;SDS011;59286;59.274;17.974;2023-09-18T00:53:44;3.00;;;1.50;;
71475;SDS011;59286;59.274;17.974;2023-09-18T00:56:15;3.50;;;1.65;;
71475;SDS011;59286;59.274;17.974;2023-09-18T00:58:42;2.30;;;1.40;;
71475;SDS011;59286;59.274;17.974;2023-09-18T01:01:08;3.58;;;1.60;;
71475;SDS011;59286;59.274;17.974;2023-09-18T01:03:35;3.67;;;1.75;;
71475;SDS011;59286;59.274;17.974;2023-09-18T01:06:01;4.70;;;2.10;;
71475;SDS011;59286;59.274;17.974;2023-09-18T01:08:26;3.72;;;2.22;;
71475;SDS011;59286;59.274;17.974;2023-09-18T01:11:05;4.88;;;1.70;;
71475;SDS011;59286;59.274;17.974;2023-09-18T01:14:12;3.30;;;1.80;;
71475;SDS011;59286;59.274;17.974;2023-09-18T01:16:53;6.00;;;1.70;;
71475;SDS011;59286;59.274;17.974;2023-09-18T01:19:34;2.58;;;1.70;;
71475;SDS011;59286;59.274;17.974;2023-09-18T01:22:01;2.75;;;1.50;;
71475;SDS011;59286;59.274;17.974;2023-09-18T01:24:27;2.05;;;1.40;;
71475;SDS011;59286;59.274;17.974;2023-09-18T01:26:52;2.08;;;1.35;;
71475;SDS011;59286;59.274;17.974;2023-09-18T01:29:17;2.33;;;1.60;;
71475;SDS011;59286;59.274;17.974;2023-09-18T01:31:44;3.25;;;2.05;;
71475;SDS011;59286;59.274;17.974;2023-09-18T01:34:25;2.35;;;1.65;;
71475;SDS011;59286;59.274;17.974;2023-09-18T01:36:57;2.08;;;1.67;;
71475;SDS011;59286;59.274;17.974;2023-09-18T01:39:23;7.15;;;2.10;;
71475;SDS011;59286;59.274;17.974;2023-09-18T01:41:52;3.65;;;1.63;;
71475;SDS011;59286;59.274;17.974;2023-09-18T01:44:17;4.28;;;1.60;;
71475;SDS011;59286;59.274;17.974;2023-09-18T01:46:43;3.75;;;2.00;;
71475;SDS011;59286;59.274;17.974;2023-09-18T01:49:09;5.47;;;1.55;;
71475;SDS011;59286;59.274;17.974;2023-09-18T01:51:35;4.75;;;1.80;;
71475;SDS011;59286;59.274;17.974;2023-09-18T01:54:00;2.42;;;1.80;;
71475;SDS011;59286;59.274;17.974;2023-09-18T01:56:26;2.55;;;1.45;;
71475;SDS011;59286;59.274;17.974;2023-09-18T01:58:51;4.40;;;1.63;;
71475;SDS011;59286;59.274;17.974;2023-09-18T02:01:16;1.85;;;1.40;;
71475;SDS011;59286;59.274;17.974;2023-09-18T02:03:42;4.25;;;1.40;;
71475;SDS011;59286;59.274;17.974;2023-09-18T02:06:07;6.20;;;2.05;;
71475;SDS011;59286;59.274;17.974;2023-09-18T02:08:36;2.17;;;1.48;;
71475;SDS011;59286;59.274;17.974;2023-09-18T02:11:01;3.50;;;1.40;;
71475;SDS011;59286;59.274;17.974;2023-09-18T02:13:28;2.80;;;1.60;;
71475;SDS011;59286;59.274;17.974;2023-09-18T02:15:53;2.67;;;1.38;;
71475;SDS011;59286;59.274;17.974;2023-09-18T02:18:18;3.00;;;1.60;;
71475;SDS011;59286;59.274;17.974;2023-09-18T02:20:45;1.88;;;1.35;;
71475;SDS011;59286;59.274;17.974;2023-09-18T02:23:13;5.10;;;1.70;;
71475;SDS011;59286;59.274;17.974;2023-09-18T02:25:39;3.17;;;1.85;;
71475;SDS011;59286;59.274;17.974;2023-09-18T02:28:05;3.42;;;1.95;;
71475;SDS011;59286;59.274;17.974;2023-09-18T02:30:31;2.35;;;1.70;;
71475;SDS011;59286;59.274;17.974;2023-09-18T02:32:57;3.85;;;1.70;;
71475;SDS011;59286;59.274;17.974;2023-09-18T02:35:22;3.38;;;2.05;;
71475;SDS011;59286;59.274;17.974;2023-09-18T02:37:47;3.50;;;1.55;;
71475;SDS011;59286;59.274;17.974;2023-09-18T02:40:13;3.95;;;1.70;;
71475;SDS011;59286;59.274;17.974;2023-09-18T02:42:39;2.35;;;1.58;;
71475;SDS011;59286;59.274;17.974;2023-09-18T02:45:04;3.72;;;1.40;;
71475;SDS011;59286;59.274;17.974;2023-09-18T02:47:30;3.88;;;1.63;;
71475;SDS011;59286;59.274;17.974;2023-09-18T02:49:55;3.78;;;1.55;;
71475;SDS011;59286;59.274;17.974;2023-09-18T02:52:20;2.95;;;1.60;;
71475;SDS011;59286;59.274;17.974;2023-09-18T02:54:46;4.13;;;1.80;;
71475;SDS011;59286;59.274;17.974;2023-09-18T02:57:11;3.17;;;1.38;;
71475;SDS011;59286;59.274;17.974;2023-09-18T02:59:36;1.98;;;1.30;;
71475;SDS011;59286;59.274;17.974;2023-09-18T03:02:02;3.28;;;1.50;;
71475;SDS011;59286;59.274;17.974;2023-09-18T03:04:30;3.30;;;1.52;;
71475;SDS011;59286;59.274;17.974;2023-09-18T03:06:56;3.60;;;1.50;;
71475;SDS011;59286;59.274;17.974;2023-09-18T03:09:21;3.75;;;1.88;;
71475;SDS011;59286;59.274;17.974;2023-09-18T03:11:46;1.85;;;1.27;;
71475;SDS011;59286;59.274;17.974;2023-09-18T03:14:12;3.30;;;1.50;;
71475;SDS011;59286;59.274;17.974;2023-09-18T03:16:38;4.40;;;1.50;;
71475;SDS011;59286;59.274;17.974;2023-09-18T03:19:03;2.63;;;1.50;;
71475;SDS011;59286;59.274;17.974;2023-09-18T03:21:28;5.20;;;1.70;;
71475;SDS011;59286;59.274;17.974;2023-09-18T03:23:56;4.88;;;1.90;;
71475;SDS011;59286;59.274;17.974;2023-09-18T03:26:22;3.60;;;1.48;;
71475;SDS011;59286;59.274;17.974;2023-09-18T03:28:48;2.33;;;1.50;;
71475;SDS011;59286;59.274;17.974;2023-09-18T03:31:13;2.30;;;1.50;;
71475;SDS011;59286;59.274;17.974;2023-09-18T03:33:38;1.70;;;1.55;;
71475;SDS011;59286;59.274;17.974;2023-09-18T03:36:04;4.95;;;1.50;;
71475;SDS011;59286;59.274;17.974;2023-09-18T03:38:29;3.85;;;1.45;;
71475;SDS011;59286;59.274;17.974;2023-09-18T03:40:55;4.35;;;1.50;;
71475;SDS011;59286;59.274;17.974;2023-09-18T03:43:20;2.58;;;1.10;;
71475;SDS011;59286;59.274;17.974;2023-09-18T03:45:46;1.35;;;1.13;;
71475;SDS011;59286;59.274;17.974;2023-09-18T03:48:12;5.45;;;1.65;;
71475;SDS011;59286;59.274;17.974;2023-09-18T03:50:37;5.00;;;1.45;;
71475;SDS011;59286;59.274;17.974;2023-09-18T03:53:03;6.55;;;1.40;;
71475;SDS011;59286;59.274;17.974;2023-09-18T03:55:29;3.58;;;1.50;;
71475;SDS011;59286;59.274;17.974;2023-09-18T03:57:54;3.78;;;1.80;;
71475;SDS011;59286;59.274;17.974;2023-09-18T04:00:20;5.97;;;1.55;;
71475;SDS011;59286;59.274;17.974;2023-09-18T04:02:47;4.00;;;1.90;;
71475;SDS011;59286;59.274;17.974;2023-09-18T04:05:12;2.97;;;1.63;;
71475;SDS011;59286;59.274;17.974;2023-09-18T04:07:38;2.90;;;1.50;;
71475;SDS011;59286;59.274;17.974;2023-09-18T04:10:03;2.88;;;1.73;;
71475;SDS011;59286;59.274;17.974;2023-09-18T04:12:30;3.53;;;1.73;;
71475;SDS011;59286;59.274;17.974;2023-09-18T04:14:56;2.13;;;1.58;;
71475;SDS011;59286;59.274;17.974;2023-09-18T04:17:21;5.35;;;1.63;;
71475;SDS011;59286;59.274;17.974;2023-09-18T04:19:46;3.03;;;1.30;;
71475;SDS011;59286;59.274;17.974;2023-09-18T04:22:12;2.47;;;1.50;;
71475;SDS011;59286;59.274;17.974;2023-09-18T04:24:37;4.13;;;1.23;;
71475;SDS011;59286;59.274;17.974;2023-09-18T04:27:03;2.90;;;1.40;;
71475;SDS011;59286;59.274;17.974;2023-09-18T04:29:28;3.55;;;1.25;;
71475;SDS011;59286;59.274;17.974;2023-09-18T04:31:53;5.05;;;1.55;;
71475;SDS011;59286;59.274;17.974;2023-09-18T04:34:20;3.63;;;1.50;;
71475;SDS011;59286;59.274;17.974;2023-09-18T04:36:45;3.47;;;1.30;;
71475;SDS011;59286;59.274;17.974;2023-09-18T04:39:11;2.50;;;1.33;;
71475;SDS011;59286;59.274;17.974;2023-09-18T04:41:40;3.17;;;1.27;;
71475;SDS011;59286;59.274;17.974;2023-09-18T04:44:05;2.45;;;1.30;;
71475;SDS011;59286;59.274;17.974;2023-09-18T04:46:32;3.97;;;1.63;;
71475;SDS011;59286;59.274;17.974;2023-09-18T04:48:59;3.10;;;1.20;;
71475;SDS011;59286;59.274;17.974;2023-09-18T04:51:25;3.95;;;1.30;;
71475;SDS011;59286;59.274;17.974;2023-09-18T04:53:50;2.47;;;1.13;;
71475;SDS011;59286;59.274;17.974;2023-09-18T04:56:17;2.20;;;1.15;;
71475;SDS011;59286;59.274;17.974;2023-09-18T04:58:43;1.40;;;1.17;;
71475;SDS011;59286;59.274;17.974;2023-09-18T05:01:08;2.47;;;0.95;;
71475;SDS011;59286;59.274;17.974;2023-09-18T05:03:36;3.28;;;1.23;;
71475;SDS011;59286;59.274;17.974;2023-09-18T05:06:02;4.65;;;1.00;;
71475;SDS011;59286;59.274;17.974;2023-09-18T05:08:30;4.00;;;0.90;;
71475;SDS011;59286;59.274;17.974;2023-09-18T05:10:56;3.97;;;1.15;;
71475;SDS011;59286;59.274;17.974;2023-09-18T05:13:22;1.90;;;0.85;;
71475;SDS011;59286;59.274;17.974;2023-09-18T05:15:48;1.80;;;0.90;;
71475;SDS011;59286;59.274;17.974;2023-09-18T05:18:13;2.53;;;1.10;;
71475;SDS011;59286;59.274;17.974;2023-09-18T05:20:39;2.05;;;1.10;;
71475;SDS011;59286;59.274;17.974;2023-09-18T05:23:05;2.85;;;1.17;;
71475;SDS011;59286;59.274;17.974;2023-09-18T05:25:30;1.15;;;0.98;;
71475;SDS011;59286;59.274;17.974;2023-09-18T05:27:57;1.50;;;0.70;;
71475;SDS011;59286;59.274;17.974;2023-09-18T05:30:33;2.47;;;0.90;;
71475;SDS011;59286;59.274;17.974;2023-09-18T05:33:00;4.75;;;1.20;;
71475;SDS011;59286;59.274;17.974;2023-09-18T05:35:33;2.53;;;1.10;;
71475;SDS011;59286;59.274;17.974;2023-09-18T05:40:31;5.47;;;1.20;;
71475;SDS011;59286;59.274;17.974;2023-09-18T05:42:57;2.15;;;0.80;;
71475;SDS011;59286;59.274;17.974;2023-09-18T05:45:23;1.08;;;0.80;;
71475;SDS011;59286;59.274;17.974;2023-09-18T05:47:49;4.57;;;1.10;;
71475;SDS011;59286;59.274;17.974;2023-09-18T05:50:15;2.08;;;0.80;;
71475;SDS011;59286;59.274;17.974;2023-09-18T05:52:45;1.98;;;0.98;;
71475;SDS011;59286;59.274;17.974;2023-09-18T05:55:11;6.22;;;1.00;;
71475;SDS011;59286;59.274;17.974;2023-09-18T05:57:37;3.15;;;1.00;;
71475;SDS011;59286;59.274;17.974;2023-09-18T06:00:03;2.85;;;0.88;;
71475;SDS011;59286;59.274;17.974;2023-09-18T06:02:30;2.03;;;0.88;;
71475;SDS011;59286;59.274;17.974;2023-09-18T06:04:56;3.58;;;1.00;;
71475;SDS011;59286;59.274;17.974;2023-09-18T06:07:23;2.10;;;1.02;;
71475;SDS011;59286;59.274;17.974;2023-09-18T06:09:49;2.42;;;1.13;;
71475;SDS011;59286;59.274;17.974;2023-09-18T06:12:15;2.28;;;1.08;;
71475;SDS011;59286;59.274;17.974;2023-09-18T06:14:40;1.67;;;1.17;;
71475;SDS011;59286;59.274;17.974;2023-09-18T06:17:06;1.77;;;1.05;;
71475;SDS011;59286;59.274;17.974;2023-09-18T06:19:31;5.10;;;1.40;;
71475;SDS011;59286;59.274;17.974;2023-09-18T06:21:58;4.10;;;1.10;;
71475;SDS011;59286;59.274;17.974;2023-09-18T06:24:23;4.05;;;1.13;;
71475;SDS011;59286;59.274;17.974;2023-09-18T06:26:48;2.65;;;1.00;;
71475;SDS011;59286;59.274;17.974;2023-09-18T06:29:15;2.90;;;1.10;;
71475;SDS011;59286;59.274;17.974;2023-09-18T06:31:41;5.03;;;1.13;;
71475;SDS011;59286;59.274;17.974;2023-09-18T06:34:06;1.70;;;0.85;;
71475;SDS011;59286;59.274;17.974;2023-09-18T06:36:31;4.57;;;1.17;;
71475;SDS011;59286;59.274;17.974;2023-09-18T06:38:57;3.95;;;1.23;;
71475;SDS011;59286;59.274;17.974;2023-09-18T06:41:23;5.22;;;1.17;;
71475;SDS011;59286;59.274;17.974;2023-09-18T06:43:48;4.55;;;0.90;;
71475;SDS011;59286;59.274;17.974;2023-09-18T06:46:14;2.42;;;0.82;;
71475;SDS011;59286;59.274;17.974;2023-09-18T06:48:39;2.92;;;0.85;;
71475;SDS011;59286;59.274;17.974;2023-09-18T06:51:04;6.82;;;0.90;;
71475;SDS011;59286;59.274;17.974;2023-09-18T06:53:31;2.55;;;0.77;;
71475;SDS011;59286;59.274;17.974;2023-09-18T06:55:57;5.55;;;0.80;;
71475;SDS011;59286;59.274;17.974;2023-09-18T06:58:22;1.50;;;0.70;;
71475;SDS011;59286;59.274;17.974;2023-09-18T07:00:47;5.07;;;0.93;;
71475;SDS011;59286;59.274;17.974;2023-09-18T07:03:15;2.92;;;0.65;;
71475;SDS011;59286;59.274;17.974;2023-09-18T07:05:41;1.48;;;0.70;;
71475;SDS011;59286;59.274;17.974;2023-09-18T07:08:08;2.00;;;0.80;;
71475;SDS011;59286;59.274;17.974;2023-09-18T07:10:36;4.88;;;0.80;;
71475;SDS011;59286;59.274;17.974;2023-09-18T07:13:02;1.83;;;0.57;;
71475;SDS011;59286;59.274;17.974;2023-09-18T07:15:27;4.45;;;0.80;;
71475;SDS011;59286;59.274;17.974;2023-09-18T07:17:53;3.22;;;1.00;;
71475;SDS011;59286;59.274;17.974;2023-09-18T07:20:18;2.70;;;0.82;;
71475;SDS011;59286;59.274;17.974;2023-09-18T07:22:47;1.77;;;0.63;;
71475;SDS011;59286;59.274;17.974;2023-09-18T07:25:12;4.57;;;0.77;;
71475;SDS011;59286;59.274;17.974;2023-09-18T07:27:38;4.13;;;0.60;;
71475;SDS011;59286;59.274;17.974;2023-09-18T07:30:09;1.80;;;0.80;;
71475;SDS011;59286;59.274;17.974;2023-09-18T07:32:35;5.03;;;0.80;;
71475;SDS011;59286;59.274;17.974;2023-09-18T07:35:01;1.63;;;0.60;;
71475;SDS011;59286;59.274;17.974;2023-09-18T07:37:26;1.40;;;0.40;;
71475;SDS011;59286;59.274;17.974;2023-09-18T07:39:52;3.58;;;0.50;;
71475;SDS011;59286;59.274;17.974;2023-09-18T07:42:18;1.70;;;0.43;;
71475;SDS011;59286;59.274;17.974;2023-09-18T07:44:43;3.45;;;0.55;;
71475;SDS011;59286;59.274;17.974;2023-09-18T07:47:09;1.83;;;0.47;;
71475;SDS011;59286;59.274;17.974;2023-09-18T07:49:34;1.65;;;0.47;;
71475;SDS011;59286;59.274;17.974;2023-09-18T07:52:00;4.28;;;0.60;;
71475;SDS011;59286;59.274;17.974;2023-09-18T07:54:25;3.40;;;0.80;;
71475;SDS011;59286;59.274;17.974;2023-09-18T07:56:50;3.67;;;0.75;;
71475;SDS011;59286;59.274;17.974;2023-09-18T07:59:16;4.68;;;0.52;;
71475;SDS011;59286;59.274;17.974;2023-09-18T08:01:42;4.72;;;0.57;;
71475;SDS011;59286;59.274;17.974;2023-09-18T08:04:07;1.83;;;0.55;;
71475;SDS011;59286;59.274;17.974;2023-09-18T08:06:32;2.28;;;0.47;;
71475;SDS011;59286;59.274;17.974;2023-09-18T08:08:58;1.48;;;0.50;;
71475;SDS011;59286;59.274;17.974;2023-09-18T08:11:23;2.08;;;0.60;;
71475;SDS011;59286;59.274;17.974;2023-09-18T08:13:49;1.50;;;0.50;;
71475;SDS011;59286;59.274;17.974;2023-09-18T08:16:14;1.63;;;0.50;;
71475;SDS011;59286;59.274;17.974;2023-09-18T08:18:40;2.63;;;0.40;;
71475;SDS011;59286;59.274;17.974;2023-09-18T08:21:06;2.83;;;0.70;;
71475;SDS011;59286;59.274;17.974;2023-09-18T08:23:34;1.83;;;0.50;;
71475;SDS011;59286;59.274;17.974;2023-09-18T08:26:00;1.85;;;0.30;;
71475;SDS011;59286;59.274;17.974;2023-09-18T08:28:26;1.50;;;0.47;;
71475;SDS011;59286;59.274;17.974;2023-09-18T08:30:51;3.45;;;0.57;;
71475;SDS011;59286;59.274;17.974;2023-09-18T08:33:17;1.33;;;0.30;;
71475;SDS011;59286;59.274;17.974;2023-09-18T08:35:42;2.33;;;0.43;;
71475;SDS011;59286;59.274;17.974;2023-09-18T08:38:09;0.88;;;0.40;;
71475;SDS011;59286;59.274;17.974;2023-09-18T08:40:34;1.17;;;0.30;;
71475;SDS011;59286;59.274;17.974;2023-09-18T08:43:02;1.55;;;0.50;;
71475;SDS011;59286;59.274;17.974;2023-09-18T08:45:35;1.30;;;0.40;;
71475;SDS011;59286;59.274;17.974;2023-09-18T08:48:08;4.38;;;0.70;;
71475;SDS011;59286;59.274;17.974;2023-09-18T08:50:34;1.33;;;0.43;;
71475;SDS011;59286;59.274;17.974;2023-09-18T08:53:00;2.38;;;0.60;;
71475;SDS011;59286;59.274;17.974;2023-09-18T08:55:26;1.98;;;0.55;;
71475;SDS011;59286;59.274;17.974;2023-09-18T08:57:53;4.85;;;0.50;;
71475;SDS011;59286;59.274;17.974;2023-09-18T09:00:20;2.88;;;0.40;;
71475;SDS011;59286;59.274;17.974;2023-09-18T09:02:46;3.50;;;0.40;;
71475;SDS011;59286;59.274;17.974;2023-09-18T09:05:13;2.28;;;0.40;;
71475;SDS011;59286;59.274;17.974;2023-09-18T09:07:39;2.83;;;0.40;;
71475;SDS011;59286;59.274;17.974;2023-09-18T09:10:05;1.52;;;0.40;;
71475;SDS011;59286;59.274;17.974;2023-09-18T09:15:18;1.02;;;0.45;;
71475;SDS011;59286;59.274;17.974;2023-09-18T09:17:44;2.03;;;0.50;;
71475;SDS011;59286;59.274;17.974;2023-09-18T09:20:11;1.05;;;0.40;;
71475;SDS011;59286;59.274;17.974;2023-09-18T09:22:38;1.80;;;0.60;;
71475;SDS011;59286;59.274;17.974;2023-09-18T09:27:44;3.63;;;0.80;;
71475;SDS011;59286;59.274;17.974;2023-09-18T09:30:10;1.30;;;0.50;;
71475;SDS011;59286;59.274;17.974;2023-09-18T09:32:35;5.93;;;0.70;;
71475;SDS011;59286;59.274;17.974;2023-09-18T09:35:01;3.60;;;0.50;;
71475;SDS011;59286;59.274;17.974;2023-09-18T09:37:29;1.02;;;0.40;;
71475;SDS011;59286;59.274;17.974;2023-09-18T09:39:56;2.03;;;0.57;;
71475;SDS011;59286;59.274;17.974;2023-09-18T09:42:21;1.55;;;0.50;;
71475;SDS011;59286;59.274;17.974;2023-09-18T09:45:00;3.30;;;0.80;;
71475;SDS011;59286;59.274;17.974;2023-09-18T09:47:31;0.75;;;0.40;;
71475;SDS011;59286;59.274;17.974;2023-09-18T09:49:58;2.85;;;0.50;;
71475;SDS011;59286;59.274;17.974;2023-09-18T09:52:23;3.05;;;0.60;;
71475;SDS011;59286;59.274;17.974;2023-09-18T09:54:49;3.10;;;0.50;;
71475;SDS011;59286;59.274;17.974;2023-09-18T09:57:14;2.88;;;0.43;;
71475;SDS011;59286;59.274;17.974;2023-09-18T09:59:39;0.88;;;0.50;;
71475;SDS011;59286;59.274;17.974;2023-09-18T10:02:09;1.45;;;0.45;;
71475;SDS011;59286;59.274;17.974;2023-09-18T10:04:39;2.58;;;0.43;;
71475;SDS011;59286;59.274;17.974;2023-09-18T10:07:07;3.55;;;0.30;;
71475;SDS011;59286;59.274;17.974;2023-09-18T10:09:38;2.53;;;0.43;;
71475;SDS011;59286;59.274;17.974;2023-09-18T10:12:12;1.92;;;0.65;;
71475;SDS011;59286;59.274;17.974;2023-09-18T10:14:45;1.52;;;0.38;;
71475;SDS011;59286;59.274;17.974;2023-09-18T10:17:17;1.33;;;0.50;;
71475;SDS011;59286;59.274;17.974;2023-09-18T10:22:40;1.15;;;0.60;;
71475;SDS011;59286;59.274;17.974;2023-09-18T10:25:14;1.23;;;0.50;;
71475;SDS011;59286;59.274;17.974;2023-09-18T10:27:44;2.80;;;0.60;;
71475;SDS011;59286;59.274;17.974;2023-09-18T10:30:14;2.35;;;0.40;;
71475;SDS011;59286;59.274;17.974;2023-09-18T10:32:43;2.38;;;0.40;;
71475;SDS011;59286;59.274;17.974;2023-09-18T10:35:10;2.35;;;0.30;;
71475;SDS011;59286;59.274;17.974;2023-09-18T10:37:37;1.77;;;0.52;;
71475;SDS011;59286;59.274;17.974;2023-09-18T10:40:05;2.00;;;0.65;;
71475;SDS011;59286;59.274;17.974;2023-09-18T10:42:33;1.25;;;0.30;;
71475;SDS011;59286;59.274;17.974;2023-09-18T10:44:59;0.95;;;0.40;;
71475;SDS011;59286;59.274;17.974;2023-09-18T10:47:25;1.58;;;0.45;;
71475;SDS011;59286;59.274;17.974;2023-09-18T10:49:51;0.90;;;0.35;;
71475;SDS011;59286;59.274;17.974;2023-09-18T10:52:17;2.47;;;0.52;;
71475;SDS011;59286;59.274;17.974;2023-09-18T10:54:42;0.88;;;0.40;;
71475;SDS011;59286;59.274;17.974;2023-09-18T10:57:09;1.55;;;0.40;;
71475;SDS011;59286;59.274;17.974;2023-09-18T10:59:39;1.75;;;0.40;;
71475;SDS011;59286;59.274;17.974;2023-09-18T11:02:08;1.10;;;0.40;;
71475;SDS011;59286;59.274;17.974;2023-09-18T11:04:33;1.13;;;0.40;;
71475;SDS011;59286;59.274;17.974;2023-09-18T11:09:25;1.63;;;0.50;;
71475;SDS011;59286;59.274;17.974;2023-09-18T11:11:52;2.92;;;0.73;;
71475;SDS011;59286;59.274;17.974;2023-09-18T11:14:22;1.15;;;0.40;;
71475;SDS011;59286;59.274;17.974;2023-09-18T11:16:48;1.35;;;0.50;;
71475;SDS011;59286;59.274;17.974;2023-09-18T11:19:17;1.58;;;0.50;;
71475;SDS011;59286;59.274;17.974;2023-09-18T11:21:44;3.08;;;0.45;;
71475;SDS011;59286;59.274;17.974;2023-09-18T11:24:20;1.67;;;0.50;;
71475;SDS011;59286;59.274;17.974;2023-09-18T11:26:48;2.78;;;0.60;;
71475;SDS011;59286;59.274;17.974;2023-09-18T11:29:16;2.53;;;0.30;;
71475;SDS011;59286;59.274;17.974;2023-09-18T11:31:47;0.57;;;0.35;;
71475;SDS011;59286;59.274;17.974;2023-09-18T11:36:48;1.73;;;0.40;;
71475;SDS011;59286;59.274;17.974;2023-09-18T11:39:32;0.88;;;0.47;;
71475;SDS011;59286;59.274;17.974;2023-09-18T11:42:09;1.42;;;0.30;;
71475;SDS011;59286;59.274;17.974;2023-09-18T11:44:37;3.95;;;0.52;;
71475;SDS011;59286;59.274;17.974;2023-09-18T11:47:07;1.75;;;0.50;;
71475;SDS011;59286;59.274;17.974;2023-09-18T11:49:37;2.03;;;0.30;;
71475;SDS011;59286;59.274;17.974;2023-09-18T11:52:06;1.20;;;0.30;;
71475;SDS011;59286;59.274;17.974;2023-09-18T11:54:32;3.35;;;0.32;;
71475;SDS011;59286;59.274;17.974;2023-09-18T11:57:02;1.42;;;0.40;;
71475;SDS011;59286;59.274;17.974;2023-09-18T11:59:33;1.17;;;0.30;;
71475;SDS011;59286;59.274;17.974;2023-09-18T12:02:01;5.65;;;0.50;;
71475;SDS011;59286;59.274;17.974;2023-09-18T12:04:30;1.30;;;0.32;;
71475;SDS011;59286;59.274;17.974;2023-09-18T12:06:58;1.67;;;0.38;;
71475;SDS011;59286;59.274;17.974;2023-09-18T12:09:26;1.23;;;0.38;;
71475;SDS011;59286;59.274;17.974;2023-09-18T12:11:52;1.60;;;0.40;;
71475;SDS011;59286;59.274;17.974;2023-09-18T12:14:20;1.88;;;0.47;;
71475;SDS011;59286;59.274;17.974;2023-09-18T12:16:46;0.75;;;0.40;;
71475;SDS011;59286;59.274;17.974;2023-09-18T12:19:18;2.72;;;0.30;;
71475;SDS011;59286;59.274;17.974;2023-09-18T12:21:46;1.65;;;0.40;;
71475;SDS011;59286;59.274;17.974;2023-09-18T12:24:15;2.05;;;0.40;;
71475;SDS011;59286;59.274;17.974;2023-09-18T12:26:48;2.33;;;0.45;;
71475;SDS011;59286;59.274;17.974;2023-09-18T12:29:14;1.52;;;0.60;;
71475;SDS011;59286;59.274;17.974;2023-09-18T12:31:39;1.30;;;0.47;;
71475;SDS011;59286;59.274;17.974;2023-09-18T12:34:11;1.50;;;0.40;;
71475;SDS011;59286;59.274;17.974;2023-09-18T12:36:41;2.65;;;0.60;;
71475;SDS011;59286;59.274;17.974;2023-09-18T12:39:12;1.25;;;0.45;;
71475;SDS011;59286;59.274;17.974;2023-09-18T12:41:41;1.40;;;0.40;;
71475;SDS011;59286;59.274;17.974;2023-09-18T12:44:07;2.85;;;0.60;;
71475;SDS011;59286;59.274;17.974;2023-09-18T12:46:35;2.05;;;0.57;;
71475;SDS011;59286;59.274;17.974;2023-09-18T12:49:23;1.33;;;0.47;;
71475;SDS011;59286;59.274;17.974;2023-09-18T12:51:59;3.67;;;0.47;;
71475;SDS011;59286;59.274;17.974;2023-09-18T12:54:39;1.30;;;0.43;;
71475;SDS011;59286;59.274;17.974;2023-09-18T12:57:05;2.45;;;0.98;;
71475;SDS011;59286;59.274;17.974;2023-09-18T12:59:32;2.63;;;0.60;;
71475;SDS011;59286;59.274;17.974;2023-09-18T13:01:58;1.85;;;0.40;;
71475;SDS011;59286;59.274;17.974;2023-09-18T13:04:24;2.83;;;0.60;;
71475;SDS011;59286;59.274;17.974;2023-09-18T13:07:10;2.53;;;0.60;;
71475;SDS011;59286;59.274;17.974;2023-09-18T13:09:37;1.98;;;0.50;;
71475;SDS011;59286;59.274;17.974;2023-09-18T13:12:03;1.98;;;0.60;;
71475;SDS011;59286;59.274;17.974;2023-09-18T13:14:29;2.70;;;0.60;;
71475;SDS011;59286;59.274;17.974;2023-09-18T13:17:01;2.42;;;0.82;;
71475;SDS011;59286;59.274;17.974;2023-09-18T13:19:29;1.70;;;0.50;;
71475;SDS011;59286;59.274;17.974;2023-09-18T13:21:54;1.17;;;0.40;;
71475;SDS011;59286;59.274;17.974;2023-09-18T13:24:29;3.05;;;0.55;;
71475;SDS011;59286;59.274;17.974;2023-09-18T13:26:56;2.42;;;0.80;;
71475;SDS011;59286;59.274;17.974;2023-09-18T13:29:23;2.30;;;0.50;;
71475;SDS011;59286;59.274;17.974;2023-09-18T13:31:49;1.60;;;0.40;;
71475;SDS011;59286;59.274;17.974;2023-09-18T13:34:16;1.13;;;0.30;;
71475;SDS011;59286;59.274;17.974;2023-09-18T13:36:45;2.28;;;0.70;;
71475;SDS011;59286;59.274;17.974;2023-09-18T13:39:11;1.83;;;0.70;;
71475;SDS011;59286;59.274;17.974;2023-09-18T13:41:37;1.20;;;0.50;;
71475;SDS011;59286;59.274;17.974;2023-09-18T13:44:03;0.73;;;0.32;;
71475;SDS011;59286;59.274;17.974;2023-09-18T13:46:28;1.65;;;0.55;;
71475;SDS011;59286;59.274;17.974;2023-09-18T13:48:54;3.65;;;0.60;;
71475;SDS011;59286;59.274;17.974;2023-09-18T13:51:19;0.82;;;0.50;;
71475;SDS011;59286;59.274;17.974;2023-09-18T13:53:44;3.22;;;0.60;;
71475;SDS011;59286;59.274;17.974;2023-09-18T13:56:10;1.50;;;0.47;;
71475;SDS011;59286;59.274;17.974;2023-09-18T13:58:35;1.98;;;0.30;;
71475;SDS011;59286;59.274;17.974;2023-09-18T14:01:06;1.00;;;0.50;;
71475;SDS011;59286;59.274;17.974;2023-09-18T14:03:32;1.55;;;0.50;;
71475;SDS011;59286;59.274;17.974;2023-09-18T14:05:58;0.90;;;0.50;;
71475;SDS011;59286;59.274;17.974;2023-09-18T14:08:23;2.15;;;0.63;;
71475;SDS011;59286;59.274;17.974;2023-09-18T14:10:48;1.00;;;0.40;;
71475;SDS011;59286;59.274;17.974;2023-09-18T14:13:14;2.80;;;0.60;;
71475;SDS011;59286;59.274;17.974;2023-09-18T14:15:39;6.15;;;0.63;;
71475;SDS011;59286;59.274;17.974;2023-09-18T14:18:04;2.17;;;0.60;;
71475;SDS011;59286;59.274;17.974;2023-09-18T14:20:30;2.40;;;0.60;;
71475;SDS011;59286;59.274;17.974;2023-09-18T14:22:55;1.65;;;0.70;;
71475;SDS011;59286;59.274;17.974;2023-09-18T14:25:20;2.10;;;0.85;;
71475;SDS011;59286;59.274;17.974;2023-09-18T14:27:47;2.50;;;0.68;;
71475;SDS011;59286;59.274;17.974;2023-09-18T14:30:13;1.52;;;0.38;;
71475;SDS011;59286;59.274;17.974;2023-09-18T14:32:38;2.55;;;0.80;;
71475;SDS011;59286;59.274;17.974;2023-09-18T14:35:05;3.10;;;0.50;;
71475;SDS011;59286;59.274;17.974;2023-09-18T14:37:33;2.53;;;0.77;;
71475;SDS011;59286;59.274;17.974;2023-09-18T14:39:59;1.67;;;0.70;;
71475;SDS011;59286;59.274;17.974;2023-09-18T14:42:24;1.77;;;0.52;;
71475;SDS011;59286;59.274;17.974;2023-09-18T14:44:49;1.95;;;0.80;;
71475;SDS011;59286;59.274;17.974;2023-09-18T14:47:15;2.13;;;0.70;;